createdAt,value
2022-09-05T00:00:23.784Z,14.78
2022-09-05T00:03:30.461Z,14.74
2022-09-05T00:06:17.169Z,14.74
2022-09-05T00:09:13.605Z,14.76
2022-09-05T00:12:01.035Z,14.78
2022-09-05T00:15:16.189Z,14.79
2022-09-05T00:23:06.145Z,14.78
2022-09-05T00:24:28.842Z,14.78
2022-09-05T00:25:45.310Z,14.81
2022-09-05T00:29:06.134Z,14.84
2022-09-05T00:32:47.267Z,14.80
2022-09-05T00:36:01.084Z,14.77
2022-09-05T00:39:04.340Z,14.74
2022-09-05T00:41:51.489Z,14.72
2022-09-05T00:44:56.677Z,14.70
2022-09-05T00:48:19.244Z,14.68
2022-09-05T00:51:34.912Z,14.64
2022-09-05T00:54:41.730Z,14.61
2022-09-05T00:57:59.254Z,14.58
2022-09-05T01:00:50.784Z,14.55
2022-09-05T01:03:53.877Z,14.52
2022-09-05T01:07:08.119Z,14.49
2022-09-05T01:10:26.459Z,14.45
2022-09-05T01:13:47.547Z,14.42
2022-09-05T01:17:15.779Z,14.40
2022-09-05T01:20:19.591Z,14.36
2022-09-05T01:23:46.425Z,14.34
2022-09-05T01:26:56.481Z,14.31
2022-09-05T01:29:57.073Z,14.27
2022-09-05T01:33:18.602Z,14.24
2022-09-05T01:36:25.794Z,14.21
2022-09-05T01:40:15.012Z,14.18
2022-09-05T01:43:01.876Z,14.15
2022-09-05T01:45:55.503Z,14.11
2022-09-05T01:49:09.082Z,14.08
2022-09-05T01:52:13.371Z,14.05
2022-09-05T01:56:03.949Z,14.01
2022-09-05T01:59:21.206Z,13.92
2022-09-05T02:02:24.691Z,13.85
2022-09-05T02:05:51.954Z,13.80
2022-09-05T02:09:13.118Z,13.76
2022-09-05T02:12:04.354Z,13.72
2022-09-05T02:15:03.637Z,13.68
2022-09-05T02:18:08.819Z,13.64
2022-09-05T02:21:01.241Z,13.62
2022-09-05T02:24:16.246Z,13.59
2022-09-05T02:28:06.164Z,13.56
2022-09-05T02:31:19.121Z,13.53
2022-09-05T02:34:25.068Z,13.50
2022-09-05T02:41:48.564Z,13.48
2022-09-05T02:45:17.725Z,13.42
2022-09-05T02:45:19.503Z,13.45
2022-09-05T02:47:52.293Z,13.39
2022-09-05T02:57:24.142Z,13.36
2022-09-05T02:57:37.438Z,13.33
2022-09-05T02:58:06.156Z,13.30
2022-09-05T03:01:09.813Z,13.28
2022-09-05T03:04:07.987Z,13.25
2022-09-05T03:07:42.822Z,13.23
2022-09-05T03:11:02.424Z,13.20
2022-09-05T03:14:12.340Z,13.17
2022-09-05T03:17:10.046Z,13.15
2022-09-05T03:20:52.016Z,13.13
2022-09-05T03:24:28.564Z,13.10
2022-09-05T03:27:32.110Z,13.06
2022-09-05T03:30:23.114Z,13.04
2022-09-05T03:34:01.145Z,13.01
2022-09-05T03:37:28.138Z,12.98
2022-09-05T03:40:39.146Z,12.93
2022-09-05T03:43:43.534Z,12.90
2022-09-05T03:46:41.207Z,12.87
2022-09-05T03:53:12.833Z,12.85
2022-09-05T03:57:17.059Z,12.81
2022-09-05T03:57:42.944Z,12.78
2022-09-05T04:00:35.464Z,12.74
2022-09-05T04:08:09.967Z,12.71
2022-09-05T04:08:23.891Z,12.67
2022-09-05T04:10:05.323Z,12.63
2022-09-05T04:13:06.498Z,12.59
2022-09-05T04:16:41.226Z,12.55
2022-09-05T04:19:29.386Z,12.50
2022-09-05T04:22:25.592Z,12.46
2022-09-05T04:26:11.375Z,12.43
2022-09-05T04:29:18.170Z,12.38
2022-09-05T04:32:31.066Z,12.35
2022-09-05T04:35:35.109Z,12.33
2022-09-05T04:38:42.780Z,12.31
2022-09-05T04:41:39.458Z,12.28
2022-09-05T04:44:55.658Z,12.28
2022-09-05T04:47:47.990Z,12.26
2022-09-05T04:50:43.418Z,12.27
2022-09-05T04:54:31.790Z,12.27
2022-09-05T04:57:51.692Z,12.30
2022-09-05T05:06:00.409Z,12.32
2022-09-05T05:06:09.094Z,12.35
2022-09-05T05:07:07.557Z,12.39
2022-09-05T05:11:38.569Z,12.44
2022-09-05T05:18:01.367Z,12.50
2022-09-05T05:18:07.465Z,12.57
2022-09-05T05:20:42.727Z,12.63
2022-09-05T05:23:50.796Z,12.71
2022-09-05T05:26:42.653Z,12.77
2022-09-05T05:30:09.221Z,12.84
2022-09-05T05:32:55.842Z,12.93
2022-09-05T05:35:48.453Z,13.01
2022-09-05T05:39:06.863Z,13.09
2022-09-05T05:41:55.116Z,13.20
2022-09-05T05:44:40.656Z,13.29
2022-09-05T05:47:48.415Z,13.38
2022-09-05T05:50:39.763Z,13.48
2022-09-05T05:53:43.415Z,13.57
2022-09-05T05:56:40.893Z,13.67
2022-09-05T05:59:35.797Z,13.75
2022-09-05T06:03:25.289Z,13.84
2022-09-05T06:06:54.765Z,13.96
2022-09-05T06:14:48.918Z,14.06
2022-09-05T06:14:57.995Z,14.17
2022-09-05T06:18:10.555Z,14.26
2022-09-05T06:22:10.456Z,14.32
2022-09-05T06:24:34.503Z,14.38
2022-09-05T06:27:43.913Z,14.43
2022-09-05T06:31:30.614Z,14.50
2022-09-05T06:34:48.208Z,14.57
2022-09-05T06:38:33.537Z,14.64
2022-09-05T06:42:00.794Z,14.72
2022-09-05T06:44:49.185Z,14.80
2022-09-05T06:47:38.269Z,14.88
2022-09-05T06:50:48.180Z,14.95
2022-09-05T06:53:55.734Z,15.04
2022-09-05T06:57:13.871Z,15.12
2022-09-05T07:00:27.173Z,15.22
2022-09-05T07:03:35.714Z,15.32
2022-09-05T07:07:01.064Z,15.42
2022-09-05T07:10:00.312Z,15.55
2022-09-05T07:12:52.291Z,15.66
2022-09-05T07:15:56.416Z,15.77
2022-09-05T07:19:10.323Z,15.90
2022-09-05T07:22:29.503Z,16.03
2022-09-05T07:25:30.338Z,16.17
2022-09-05T07:28:29.310Z,16.29
2022-09-05T07:31:37.977Z,16.39
2022-09-05T07:34:29.422Z,16.52
2022-09-05T07:37:24.257Z,16.66
2022-09-05T07:40:25.775Z,16.79
2022-09-05T07:43:39.593Z,16.92
2022-09-05T07:46:29.157Z,17.08
2022-09-05T07:49:20.692Z,17.25
2022-09-05T07:56:51.884Z,17.46
2022-09-05T07:57:04.916Z,17.76
2022-09-05T07:59:03.640Z,18.09
2022-09-05T08:01:50.331Z,18.42
2022-09-05T08:05:03.945Z,18.69
2022-09-05T08:07:52.881Z,18.94
2022-09-05T08:11:23.994Z,19.10
2022-09-05T08:14:40.748Z,19.28
2022-09-05T08:17:30.016Z,19.46
2022-09-05T08:20:37.190Z,19.58
2022-09-05T08:24:13.680Z,19.65
2022-09-05T08:27:16.354Z,19.71
2022-09-05T08:30:26.182Z,19.76
2022-09-05T08:33:29.600Z,19.85
2022-09-05T08:36:41.875Z,19.98
2022-09-05T08:39:29.641Z,20.11
2022-09-05T08:42:21.178Z,20.24
2022-09-05T08:46:43.898Z,20.40
2022-09-05T08:48:53.223Z,20.61
2022-09-05T08:52:07.042Z,20.83
2022-09-05T08:55:07.748Z,21.13
2022-09-05T08:58:02.928Z,21.41
2022-09-05T09:01:14.064Z,21.69
2022-09-05T09:05:00.818Z,22.05
2022-09-05T09:08:38.336Z,22.39
2022-09-05T09:11:41.221Z,22.67
2022-09-05T09:14:40.526Z,22.86
2022-09-05T09:17:40.089Z,23.10
2022-09-05T09:21:08.949Z,23.38
2022-09-05T09:24:32.310Z,23.78
2022-09-05T09:27:56.082Z,24.20
2022-09-05T09:30:38.038Z,24.42
2022-09-05T09:33:56.911Z,24.57
2022-09-05T09:37:15.199Z,24.83
2022-09-05T09:40:38.247Z,25.07
2022-09-05T09:43:30.984Z,25.27
2022-09-05T09:46:20.071Z,25.42
2022-09-05T09:49:50.153Z,25.50
2022-09-05T09:53:19.793Z,25.58
2022-09-05T09:56:26.899Z,25.68
2022-09-05T09:59:54.856Z,25.70
2022-09-05T10:04:31.087Z,25.70
2022-09-05T10:10:46.313Z,25.74
2022-09-05T10:10:51.628Z,25.69
2022-09-05T10:14:47.521Z,25.81
2022-09-05T10:17:59.048Z,25.87
2022-09-05T10:21:16.649Z,25.94
2022-09-05T10:24:54.005Z,26.04
2022-09-05T10:27:55.753Z,26.06
2022-09-05T10:34:56.509Z,26.03
2022-09-05T10:35:17.389Z,25.97
2022-09-05T10:37:51.045Z,25.94
2022-09-05T10:41:20.170Z,25.97
2022-09-05T10:44:20.485Z,25.96
2022-09-05T10:47:38.892Z,25.88
2022-09-05T10:50:34.215Z,25.83
2022-09-05T10:54:03.267Z,25.88
2022-09-05T10:57:24.845Z,26.09
2022-09-05T11:02:21.458Z,26.28
2022-09-05T11:04:18.424Z,26.51
2022-09-05T11:07:16.711Z,26.56
2022-09-05T11:10:11.520Z,26.57
2022-09-05T11:13:11.995Z,26.53
2022-09-05T11:16:36.915Z,26.52
2022-09-05T11:19:49.980Z,26.51
2022-09-05T11:22:41.416Z,26.45
2022-09-05T11:25:39.828Z,26.45
2022-09-05T11:29:07.368Z,26.46
2022-09-05T11:36:23.641Z,26.41
2022-09-05T11:39:56.717Z,26.44
2022-09-05T11:40:07.271Z,26.48
2022-09-05T11:43:15.506Z,26.39
2022-09-05T11:46:35.967Z,26.31
2022-09-05T11:49:55.148Z,26.26
2022-09-05T11:53:35.853Z,26.19
2022-09-05T11:57:33.188Z,26.15
2022-09-05T12:00:33.125Z,26.15
2022-09-05T12:07:41.457Z,26.09
2022-09-05T12:10:46.936Z,26.04
2022-09-05T12:14:01.807Z,25.99
2022-09-05T12:17:34.980Z,26.03
2022-09-05T12:20:43.337Z,26.08
2022-09-05T12:24:31.253Z,26.00
2022-09-05T12:27:43.066Z,25.91
2022-09-05T12:30:10.359Z,25.86
2022-09-05T12:36:01.875Z,25.81
2022-09-05T12:41:01.139Z,25.73
2022-09-05T12:41:32.839Z,25.64
2022-09-05T12:41:43.000Z,26.14
2022-09-05T12:44:39.204Z,25.56
2022-09-05T12:46:47.237Z,25.48
2022-09-05T12:49:52.184Z,25.35
2022-09-05T12:52:47.032Z,25.27
2022-09-05T12:56:29.621Z,25.18
2022-09-05T13:02:59.553Z,25.13
2022-09-05T13:03:12.330Z,25.08
2022-09-05T13:06:26.159Z,25.05
2022-09-05T13:11:39.199Z,24.99
2022-09-05T13:14:58.833Z,24.91
2022-09-05T13:16:29.569Z,24.87
2022-09-05T13:19:33.634Z,24.82
2022-09-05T13:22:24.136Z,24.75
2022-09-05T13:25:58.975Z,24.68
2022-09-05T13:29:10.082Z,24.56
2022-09-05T13:37:55.595Z,24.49
2022-09-05T13:38:20.785Z,24.47
2022-09-05T13:39:10.456Z,24.45
2022-09-05T13:42:01.635Z,24.39
2022-09-05T13:44:54.379Z,24.35
2022-09-05T13:47:53.423Z,24.30
2022-09-05T13:50:43.868Z,24.24
2022-09-05T13:53:46.316Z,24.20
2022-09-05T13:56:33.491Z,24.16
2022-09-05T13:59:20.990Z,24.07
2022-09-05T14:02:35.467Z,23.95
2022-09-05T14:06:37.813Z,23.79
2022-09-05T14:09:39.667Z,23.72
2022-09-05T14:12:42.791Z,23.59
2022-09-05T14:15:42.408Z,23.51
2022-09-05T14:18:55.956Z,23.45
2022-09-05T14:21:42.448Z,23.39
2022-09-05T14:24:28.459Z,23.37
2022-09-05T14:27:18.681Z,23.33
2022-09-05T14:37:07.087Z,23.32
2022-09-05T14:37:41.131Z,23.29
2022-09-05T14:37:48.384Z,23.25
2022-09-05T14:39:58.264Z,23.23
2022-09-05T14:46:20.401Z,23.21
2022-09-05T14:52:26.279Z,23.20
2022-09-05T15:02:42.984Z,23.12
2022-09-05T15:02:50.349Z,23.11
2022-09-05T15:06:40.878Z,23.10
2022-09-05T15:11:25.873Z,23.09
2022-09-05T15:12:44.056Z,23.08
2022-09-05T15:15:34.442Z,23.03
2022-09-05T15:18:32.343Z,23.00
2022-09-05T15:21:34.924Z,22.99
2022-09-05T15:24:13.554Z,22.97
2022-09-05T15:27:05.501Z,22.94
2022-09-05T15:29:35.686Z,22.92
2022-09-05T15:32:27.661Z,22.92
2022-09-05T15:34:59.744Z,22.90
2022-09-05T15:37:45.668Z,22.87
2022-09-05T15:40:21.988Z,22.82
2022-09-05T15:42:59.619Z,22.76
2022-09-05T15:45:32.272Z,22.73
2022-09-05T15:48:24.194Z,22.67
2022-09-05T15:50:59.151Z,22.63
2022-09-05T15:53:38.339Z,22.56
2022-09-05T15:56:12.297Z,22.52
2022-09-05T15:59:01.725Z,22.45
2022-09-05T16:01:52.461Z,22.41
2022-09-05T16:10:26.878Z,22.37
2022-09-05T16:10:39.696Z,22.34
2022-09-05T16:10:57.882Z,22.28
2022-09-05T16:13:48.397Z,22.25
2022-09-05T16:23:20.623Z,22.22
2022-09-05T16:23:27.979Z,22.16
2022-09-05T16:23:32.903Z,22.15
2022-09-05T16:24:58.877Z,22.11
2022-09-05T16:27:54.868Z,22.06
2022-09-05T16:30:40.256Z,22.02
2022-09-05T16:33:14.876Z,21.99
2022-09-05T16:36:00.452Z,21.95
2022-09-05T16:39:00.224Z,21.90
2022-09-05T16:42:05.641Z,21.85
2022-09-05T16:44:47.585Z,21.81
2022-09-05T16:47:39.398Z,21.78
2022-09-05T16:50:34.256Z,21.73
2022-09-05T16:54:10.286Z,21.68
2022-09-05T16:57:03.263Z,21.63
2022-09-05T17:00:02.721Z,21.58
2022-09-05T17:10:39.328Z,21.40
2022-09-05T17:18:19.152Z,21.23
2022-09-05T17:20:59.691Z,21.14
2022-09-05T17:29:36.267Z,21.07
2022-09-05T17:29:39.923Z,21.00
2022-09-05T17:47:55.950Z,20.42
2022-09-05T17:50:51.120Z,20.30
2022-09-05T17:53:39.800Z,20.21
2022-09-05T17:56:13.356Z,20.13
2022-09-05T17:59:23.875Z,20.05
2022-09-05T18:02:36.728Z,19.94
2022-09-05T18:06:59.250Z,19.82
2022-09-05T18:10:14.810Z,19.72
2022-09-05T18:16:48.411Z,19.52
2022-09-05T18:21:47.326Z,19.42
2022-09-05T18:24:53.698Z,19.32
2022-09-05T18:28:12.961Z,19.19
2022-09-05T18:30:47.519Z,19.10
2022-09-05T18:33:55.320Z,19.02
2022-09-05T18:37:05.208Z,18.95
2022-09-05T18:40:08.594Z,18.86
2022-09-05T18:42:48.476Z,18.79
2022-09-05T18:45:28.328Z,18.73
2022-09-05T18:48:16.324Z,18.68
2022-09-05T18:51:13.853Z,18.62
2022-09-05T18:53:47.237Z,18.56
2022-09-05T18:56:42.523Z,18.50
2022-09-05T18:59:34.896Z,18.44
2022-09-05T19:03:00.021Z,18.38
2022-09-05T19:05:51.692Z,18.32
2022-09-05T19:08:32.537Z,18.26
2022-09-05T19:11:28.055Z,18.21
2022-09-05T19:14:26.165Z,18.15
2022-09-05T19:17:27.423Z,18.09
2022-09-05T20:55:39.917Z,15.95
2022-09-05T20:58:51.125Z,15.95
2022-09-05T21:02:27.515Z,15.93
2022-09-05T21:39:11.307Z,15.62
2022-09-05T21:59:13.873Z,15.54
2022-09-05T21:59:32.963Z,15.56
2022-09-05T21:59:47.049Z,15.56
2022-09-05T22:02:22.070Z,15.54
2022-09-05T22:05:02.163Z,15.53
2022-09-05T22:07:34.804Z,15.51
2022-09-05T22:10:08.696Z,15.49
2022-09-05T22:12:39.079Z,15.47
2022-09-05T22:15:28.409Z,15.45
2022-09-05T22:18:17.643Z,15.42
2022-09-05T22:21:31.851Z,15.39
2022-09-05T22:23:50.634Z,15.35
2022-09-05T22:26:19.475Z,15.32
2022-09-05T22:28:50.043Z,15.29
2022-09-05T22:31:20.151Z,15.26
2022-09-05T22:40:02.324Z,15.16
2022-09-05T22:42:30.493Z,15.13
2022-09-05T22:44:58.960Z,15.11
2022-09-05T22:47:31.986Z,15.09
2022-09-05T22:50:01.260Z,15.07
2022-09-05T22:52:34.942Z,15.06
2022-09-05T22:55:06.693Z,15.05
2022-09-05T22:57:34.455Z,15.03
2022-09-05T23:00:09.318Z,15.01
2022-09-05T23:02:37.171Z,15.00
2022-09-05T23:05:06.505Z,14.99
2022-09-05T23:07:35.519Z,14.97
2022-09-05T23:10:04.235Z,14.96
2022-09-05T23:12:37.485Z,14.95
2022-09-05T23:15:07.475Z,14.94
2022-09-05T23:17:35.873Z,14.92
2022-09-05T23:20:05.653Z,14.90
2022-09-05T23:22:36.288Z,14.88
2022-09-05T23:25:05.703Z,14.86
2022-09-05T23:27:37.856Z,14.83
2022-09-05T23:30:07.757Z,14.82
2022-09-05T23:32:35.785Z,14.79
2022-09-05T23:35:04.201Z,14.77
2022-09-05T23:37:32.072Z,14.75
2022-09-05T23:39:59.984Z,14.72
2022-09-05T23:42:28.394Z,14.68
2022-09-05T23:44:56.464Z,14.65
2022-09-05T23:47:24.288Z,14.61
2022-09-05T23:49:52.342Z,14.58
2022-09-05T23:52:20.561Z,14.54
2022-09-05T23:54:48.730Z,14.51
2022-09-05T23:57:26.231Z,14.46
2022-09-05T23:59:54.655Z,14.43
